<?xml version="1.0" encoding="utf-8"?>
<gpx xmlns:xsi="http://www.w3.org/2001/XMLSchema-instance" xmlns:xsd="http://www.w3.org/2001/XMLSchema" version="1.1" creator="Shapelink.com" xmlns="http://www.topografix.com/GPX/1/1" xmlns:gpxtpx="http://www.garmin.com/xmlschemas/TrackPointExtension/v1">
  <metadata>
    <name>Övrigt 3.54 km, 2019-07-31</name>
    <desc></desc>
    <author><name>Marian Moron</name></author> 
    <time>2019-07-31T14:25:16Z</time>
  </metadata>
  <trk>
    <name>Övrigt 3.54 km, 2019-07-31</name>
    <trkseg>
      <trkpt lat="53.12222327795" lon="17.992972861771">
        <ele>37</ele>
        <time>2019-07-31T14:25:16Z</time>
      </trkpt>
      <trkpt lat="53.122285723105" lon="17.993026841207">
        <ele>36.2</ele>
        <time>2019-07-31T14:25:49Z</time>
      </trkpt>
      <trkpt lat="53.121890600339" lon="17.99289415573">
        <ele>33.6</ele>
        <time>2019-07-31T14:27:13Z</time>
      </trkpt>
      <trkpt lat="53.121666887428" lon="17.992981830404">
        <ele>32</ele>
        <time>2019-07-31T14:28:25Z</time>
      </trkpt>
      <trkpt lat="53.121656829148" lon="17.993070846182">
        <ele>32</ele>
        <time>2019-07-31T14:28:31Z</time>
      </trkpt>
      <trkpt lat="53.121407383804" lon="17.993687167289">
        <ele>39.4</ele>
        <time>2019-07-31T14:29:56Z</time>
      </trkpt>
      <trkpt lat="53.121322978071" lon="17.994192595859">
        <ele>36.4</ele>
        <time>2019-07-31T14:30:32Z</time>
      </trkpt>
      <trkpt lat="53.121161207401" lon="17.994548575152">
        <ele>35</ele>
        <time>2019-07-31T14:31:05Z</time>
      </trkpt>
      <trkpt lat="53.12115542389" lon="17.994804223102">
        <ele>39.6</ele>
        <time>2019-07-31T14:31:32Z</time>
      </trkpt>
      <trkpt lat="53.121104126662" lon="17.994997090621">
        <ele>45</ele>
        <time>2019-07-31T14:32:01Z</time>
      </trkpt>
      <trkpt lat="53.121110413087" lon="17.995001784485">
        <ele>45.6</ele>
        <time>2019-07-31T14:32:19Z</time>
      </trkpt>
      <trkpt lat="53.121106138318" lon="17.995013519145">
        <ele>45.4</ele>
        <time>2019-07-31T14:32:20Z</time>
      </trkpt>
      <trkpt lat="53.121094152201" lon="17.994933304362">
        <ele>43.2</ele>
        <time>2019-07-31T14:32:27Z</time>
      </trkpt>
      <trkpt lat="53.121065989017" lon="17.995007400358">
        <ele>42</ele>
        <time>2019-07-31T14:32:37Z</time>
      </trkpt>
      <trkpt lat="53.120993820858" lon="17.995369163162">
        <ele>31</ele>
        <time>2019-07-31T14:32:54Z</time>
      </trkpt>
      <trkpt lat="53.121017876911" lon="17.995231951459">
        <ele>26.8</ele>
        <time>2019-07-31T14:33:09Z</time>
      </trkpt>
      <trkpt lat="53.121027432277" lon="17.995017877733">
        <ele>25.4</ele>
        <time>2019-07-31T14:33:32Z</time>
      </trkpt>
      <trkpt lat="53.12103137177" lon="17.995018632104">
        <ele>27.8</ele>
        <time>2019-07-31T14:33:36Z</time>
      </trkpt>
      <trkpt lat="53.121051823606" lon="17.99506171507">
        <ele>29</ele>
        <time>2019-07-31T14:33:50Z</time>
      </trkpt>
      <trkpt lat="53.12120152434" lon="17.995111252099">
        <ele>35.8</ele>
        <time>2019-07-31T14:34:49Z</time>
      </trkpt>
      <trkpt lat="53.121136648434" lon="17.995125501329">
        <ele>37.8</ele>
        <time>2019-07-31T14:36:03Z</time>
      </trkpt>
      <trkpt lat="53.121145030334" lon="17.995135727247">
        <ele>38.8</ele>
        <time>2019-07-31T14:36:13Z</time>
      </trkpt>
      <trkpt lat="53.121106641232" lon="17.995188533217">
        <ele>38.4</ele>
        <time>2019-07-31T14:36:27Z</time>
      </trkpt>
      <trkpt lat="53.12109675059" lon="17.995172439969">
        <ele>39.4</ele>
        <time>2019-07-31T14:36:35Z</time>
      </trkpt>
      <trkpt lat="53.121109071983" lon="17.995149557382">
        <ele>29.6</ele>
        <time>2019-07-31T14:37:08Z</time>
      </trkpt>
      <trkpt lat="53.120933052083" lon="17.995633695926">
        <ele>40.8</ele>
        <time>2019-07-31T14:38:35Z</time>
      </trkpt>
      <trkpt lat="53.121156681175" lon="17.996239707296">
        <ele>62.6</ele>
        <time>2019-07-31T14:39:41Z</time>
      </trkpt>
      <trkpt lat="53.12126019764" lon="17.99647657979">
        <ele>44.6</ele>
        <time>2019-07-31T14:41:20Z</time>
      </trkpt>
      <trkpt lat="53.121204960919" lon="17.996504491517">
        <ele>43</ele>
        <time>2019-07-31T14:41:41Z</time>
      </trkpt>
      <trkpt lat="53.12125935945" lon="17.99667942177">
        <ele>39.4</ele>
        <time>2019-07-31T14:43:17Z</time>
      </trkpt>
      <trkpt lat="53.12125935945" lon="17.996669112033">
        <ele>39.4</ele>
        <time>2019-07-31T14:43:22Z</time>
      </trkpt>
      <trkpt lat="53.121301352769" lon="17.99652100386">
        <ele>32.8</ele>
        <time>2019-07-31T14:43:45Z</time>
      </trkpt>
      <trkpt lat="53.121329515953" lon="17.996487643898">
        <ele>26.2</ele>
        <time>2019-07-31T14:44:46Z</time>
      </trkpt>
      <trkpt lat="53.12141945374" lon="17.997175043517">
        <ele>36.2</ele>
        <time>2019-07-31T14:45:57Z</time>
      </trkpt>
      <trkpt lat="53.121333874541" lon="17.997611405231">
        <ele>21.8</ele>
        <time>2019-07-31T14:47:28Z</time>
      </trkpt>
      <trkpt lat="53.121326666107" lon="17.997667563961">
        <ele>21.8</ele>
        <time>2019-07-31T14:47:32Z</time>
      </trkpt>
      <trkpt lat="53.121250558455" lon="17.997904436455">
        <ele>22.8</ele>
        <time>2019-07-31T14:47:54Z</time>
      </trkpt>
      <trkpt lat="53.121249133532" lon="17.998040809968">
        <ele>24.4</ele>
        <time>2019-07-31T14:48:28Z</time>
      </trkpt>
      <trkpt lat="53.12126103583" lon="17.998043827452">
        <ele>22.4</ele>
        <time>2019-07-31T14:48:43Z</time>
      </trkpt>
      <trkpt lat="53.12129456343" lon="17.998210291986">
        <ele>24</ele>
        <time>2019-07-31T14:49:01Z</time>
      </trkpt>
      <trkpt lat="53.121244020573" lon="17.99838765299">
        <ele>24.4</ele>
        <time>2019-07-31T14:49:19Z</time>
      </trkpt>
      <trkpt lat="53.121147377266" lon="17.998994083455">
        <ele>23.6</ele>
        <time>2019-07-31T14:50:24Z</time>
      </trkpt>
      <trkpt lat="53.121138157176" lon="17.999080081749">
        <ele>23.8</ele>
        <time>2019-07-31T14:50:29Z</time>
      </trkpt>
      <trkpt lat="53.121032377598" lon="17.999640495583">
        <ele>18</ele>
        <time>2019-07-31T14:51:25Z</time>
      </trkpt>
      <trkpt lat="53.120937997404" lon="18.000241310175">
        <ele>21.8</ele>
        <time>2019-07-31T14:52:13Z</time>
      </trkpt>
      <trkpt lat="53.120829703256" lon="18.000606425739">
        <ele>21.2</ele>
        <time>2019-07-31T14:52:38Z</time>
      </trkpt>
      <trkpt lat="53.120819477338" lon="18.000684964142">
        <ele>20.2</ele>
        <time>2019-07-31T14:52:43Z</time>
      </trkpt>
      <trkpt lat="53.120816040759" lon="18.000706421806">
        <ele>20.4</ele>
        <time>2019-07-31T14:52:55Z</time>
      </trkpt>
      <trkpt lat="53.120786787928" lon="18.000845561346">
        <ele>22.8</ele>
        <time>2019-07-31T14:55:56Z</time>
      </trkpt>
      <trkpt lat="53.120785698281" lon="18.000845896622">
        <ele>22.8</ele>
        <time>2019-07-31T14:55:57Z</time>
      </trkpt>
      <trkpt lat="53.120891058764" lon="18.000847489183">
        <ele>26.2</ele>
        <time>2019-07-31T14:57:30Z</time>
      </trkpt>
      <trkpt lat="53.121011674305" lon="18.000639366606">
        <ele>23.4</ele>
        <time>2019-07-31T14:58:16Z</time>
      </trkpt>
      <trkpt lat="53.121055176366" lon="18.000661997736">
        <ele>22.8</ele>
        <time>2019-07-31T14:58:20Z</time>
      </trkpt>
      <trkpt lat="53.121252151016" lon="18.000897445307">
        <ele>16</ele>
        <time>2019-07-31T14:59:27Z</time>
      </trkpt>
      <trkpt lat="53.121593964898" lon="18.000635427113">
        <ele>27</ele>
        <time>2019-07-31T15:00:41Z</time>
      </trkpt>
      <trkpt lat="53.121567729551" lon="18.000605587549">
        <ele>27.6</ele>
        <time>2019-07-31T15:00:44Z</time>
      </trkpt>
      <trkpt lat="53.121576111451" lon="18.000528222612">
        <ele>31</ele>
        <time>2019-07-31T15:00:54Z</time>
      </trkpt>
      <trkpt lat="53.121726566556" lon="18.000465526">
        <ele>26.4</ele>
        <time>2019-07-31T15:01:54Z</time>
      </trkpt>
      <trkpt lat="53.121759172147" lon="18.000418503541">
        <ele>27</ele>
        <time>2019-07-31T15:01:59Z</time>
      </trkpt>
      <trkpt lat="53.121762189631" lon="18.000381455543">
        <ele>26.8</ele>
        <time>2019-07-31T15:02:02Z</time>
      </trkpt>
      <trkpt lat="53.12180250657" lon="18.000334600722">
        <ele>26.6</ele>
        <time>2019-07-31T15:02:08Z</time>
      </trkpt>
      <trkpt lat="53.121872998349" lon="18.000329990677">
        <ele>24.2</ele>
        <time>2019-07-31T15:02:14Z</time>
      </trkpt>
      <trkpt lat="53.121857408015" lon="18.000298139457">
        <ele>23.6</ele>
        <time>2019-07-31T15:02:21Z</time>
      </trkpt>
      <trkpt lat="53.121875596738" lon="18.000274251042">
        <ele>24</ele>
        <time>2019-07-31T15:02:24Z</time>
      </trkpt>
      <trkpt lat="53.12188967833" lon="18.000233179732">
        <ele>24</ele>
        <time>2019-07-31T15:02:34Z</time>
      </trkpt>
      <trkpt lat="53.121903340827" lon="18.000188252748">
        <ele>24</ele>
        <time>2019-07-31T15:02:38Z</time>
      </trkpt>
      <trkpt lat="53.121928486527" lon="18.000123712118">
        <ele>24.4</ele>
        <time>2019-07-31T15:02:44Z</time>
      </trkpt>
      <trkpt lat="53.121907699415" lon="18.00009588421">
        <ele>25</ele>
        <time>2019-07-31T15:02:48Z</time>
      </trkpt>
      <trkpt lat="53.121890097425" lon="18.000037713824">
        <ele>25.6</ele>
        <time>2019-07-31T15:02:53Z</time>
      </trkpt>
      <trkpt lat="53.121933599486" lon="18.000008544812">
        <ele>23.2</ele>
        <time>2019-07-31T15:03:18Z</time>
      </trkpt>
      <trkpt lat="53.121950447105" lon="17.999853312024">
        <ele>24.4</ele>
        <time>2019-07-31T15:03:31Z</time>
      </trkpt>
      <trkpt lat="53.121978191194" lon="17.999788687575">
        <ele>25.6</ele>
        <time>2019-07-31T15:03:36Z</time>
      </trkpt>
      <trkpt lat="53.121931252554" lon="17.999726410058">
        <ele>24.6</ele>
        <time>2019-07-31T15:04:16Z</time>
      </trkpt>
      <trkpt lat="53.121968216733" lon="17.999663881084">
        <ele>27.4</ele>
        <time>2019-07-31T15:05:04Z</time>
      </trkpt>
      <trkpt lat="53.122284968734" lon="17.999917433559">
        <ele>30.4</ele>
        <time>2019-07-31T15:06:56Z</time>
      </trkpt>
      <trkpt lat="53.122328386976" lon="17.999925564002">
        <ele>28.2</ele>
        <time>2019-07-31T15:09:52Z</time>
      </trkpt>
      <trkpt lat="53.122280777784" lon="18.000263103115">
        <ele>24.2</ele>
        <time>2019-07-31T15:10:17Z</time>
      </trkpt>
      <trkpt lat="53.122419330591" lon="18.000848327373">
        <ele>29.4</ele>
        <time>2019-07-31T15:11:34Z</time>
      </trkpt>
      <trkpt lat="53.122458390245" lon="18.000876993471">
        <ele>29.4</ele>
        <time>2019-07-31T15:11:37Z</time>
      </trkpt>
      <trkpt lat="53.122893913769" lon="18.001072794655">
        <ele>45.6</ele>
        <time>2019-07-31T15:12:37Z</time>
      </trkpt>
      <trkpt lat="53.122940684771" lon="18.001047900412">
        <ele>40.8</ele>
        <time>2019-07-31T15:12:44Z</time>
      </trkpt>
      <trkpt lat="53.123069430755" lon="18.001108585368">
        <ele>30.6</ele>
        <time>2019-07-31T15:13:19Z</time>
      </trkpt>
      <trkpt lat="53.123092313342" lon="18.001159128225">
        <ele>30.8</ele>
        <time>2019-07-31T15:13:23Z</time>
      </trkpt>
      <trkpt lat="53.123354080079" lon="18.001429360681">
        <ele>28.6</ele>
        <time>2019-07-31T15:14:53Z</time>
      </trkpt>
      <trkpt lat="53.12348223933" lon="18.001366664069">
        <ele>25.6</ele>
        <time>2019-07-31T15:15:38Z</time>
      </trkpt>
      <trkpt lat="53.123479892398" lon="18.001331292451">
        <ele>25.4</ele>
        <time>2019-07-31T15:15:40Z</time>
      </trkpt>
      <trkpt lat="53.123514342007" lon="18.001308661321">
        <ele>25.2</ele>
        <time>2019-07-31T15:16:02Z</time>
      </trkpt>
      <trkpt lat="53.123586593985" lon="18.001525584893">
        <ele>28.6</ele>
        <time>2019-07-31T15:17:30Z</time>
      </trkpt>
      <trkpt lat="53.123589024736" lon="18.001591885722">
        <ele>23.6</ele>
        <time>2019-07-31T15:20:08Z</time>
      </trkpt>
      <trkpt lat="53.123599250654" lon="18.001594987025">
        <ele>26.4</ele>
        <time>2019-07-31T15:21:08Z</time>
      </trkpt>
      <trkpt lat="53.123555413317" lon="18.002302419385">
        <ele>22</ele>
        <time>2019-07-31T15:22:28Z</time>
      </trkpt>
      <trkpt lat="53.123530602893" lon="18.002399900882">
        <ele>22.6</ele>
        <time>2019-07-31T15:22:37Z</time>
      </trkpt>
      <trkpt lat="53.123462038951" lon="18.002561336276">
        <ele>20.4</ele>
        <time>2019-07-31T15:22:52Z</time>
      </trkpt>
      <trkpt lat="53.12341602232" lon="18.002799717512">
        <ele>20</ele>
        <time>2019-07-31T15:23:12Z</time>
      </trkpt>
      <trkpt lat="53.123395402846" lon="18.00293231917">
        <ele>18.6</ele>
        <time>2019-07-31T15:23:21Z</time>
      </trkpt>
      <trkpt lat="53.123370173327" lon="18.003008845917">
        <ele>17.4</ele>
        <time>2019-07-31T15:23:31Z</time>
      </trkpt>
      <trkpt lat="53.123416525234" lon="18.003277904907">
        <ele>12.8</ele>
        <time>2019-07-31T15:24:55Z</time>
      </trkpt>
      <trkpt lat="53.123410238809" lon="18.003291818861">
        <ele>18.6</ele>
        <time>2019-07-31T15:26:33Z</time>
      </trkpt>
      <trkpt lat="53.123627581476" lon="18.003526260604">
        <ele>33.6</ele>
        <time>2019-07-31T15:27:40Z</time>
      </trkpt>
      <trkpt lat="53.123707377164" lon="18.003564230611">
        <ele>34.8</ele>
        <time>2019-07-31T15:27:46Z</time>
      </trkpt>
      <trkpt lat="53.123966545512" lon="18.003576300547">
        <ele>44</ele>
        <time>2019-07-31T15:28:22Z</time>
      </trkpt>
      <trkpt lat="53.12394659659" lon="18.003669591094">
        <ele>26.6</ele>
        <time>2019-07-31T15:31:56Z</time>
      </trkpt>
      <trkpt lat="53.124055058376" lon="18.003462306707">
        <ele>47.2</ele>
        <time>2019-07-31T15:33:17Z</time>
      </trkpt>
      <trkpt lat="53.123621462689" lon="18.00316030685">
        <ele>25.8</ele>
        <time>2019-07-31T15:34:13Z</time>
      </trkpt>
      <trkpt lat="53.123287360155" lon="18.003019742387">
        <ele>16.6</ele>
        <time>2019-07-31T15:35:07Z</time>
      </trkpt>
      <trkpt lat="53.123303369584" lon="18.002970205358">
        <ele>17.8</ele>
        <time>2019-07-31T15:35:12Z</time>
      </trkpt>
      <trkpt lat="53.12332801237" lon="18.002887476005">
        <ele>19.6</ele>
        <time>2019-07-31T15:35:20Z</time>
      </trkpt>
      <trkpt lat="53.123350811138" lon="18.002831987827">
        <ele>19.8</ele>
        <time>2019-07-31T15:35:25Z</time>
      </trkpt>
      <trkpt lat="53.123391463353" lon="18.002689579346">
        <ele>18.2</ele>
        <time>2019-07-31T15:35:35Z</time>
      </trkpt>
      <trkpt lat="53.123404790574" lon="18.002673067003">
        <ele>18.4</ele>
        <time>2019-07-31T15:35:38Z</time>
      </trkpt>
      <trkpt lat="53.123424152763" lon="18.002631492779">
        <ele>18.6</ele>
        <time>2019-07-31T15:35:42Z</time>
      </trkpt>
      <trkpt lat="53.123568153805" lon="18.002179205455">
        <ele>18.8</ele>
        <time>2019-07-31T15:37:27Z</time>
      </trkpt>
      <trkpt lat="53.123605956174" lon="18.002045933245">
        <ele>19.4</ele>
        <time>2019-07-31T15:37:42Z</time>
      </trkpt>
      <trkpt lat="53.123627581476" lon="18.001883575842">
        <ele>22.2</ele>
        <time>2019-07-31T15:37:55Z</time>
      </trkpt>
      <trkpt lat="53.123647781855" lon="18.001856334667">
        <ele>20.6</ele>
        <time>2019-07-31T15:37:59Z</time>
      </trkpt>
      <trkpt lat="53.123690445726" lon="18.001810150398">
        <ele>22</ele>
        <time>2019-07-31T15:38:07Z</time>
      </trkpt>
      <trkpt lat="53.123809887801" lon="18.001822890886">
        <ele>29.4</ele>
        <time>2019-07-31T15:38:37Z</time>
      </trkpt>
      <trkpt lat="53.123841068469" lon="18.0017898662">
        <ele>31.2</ele>
        <time>2019-07-31T15:38:40Z</time>
      </trkpt>
      <trkpt lat="53.123927569677" lon="18.001733372194">
        <ele>42.6</ele>
        <time>2019-07-31T15:38:55Z</time>
      </trkpt>
      <trkpt lat="53.123909213316" lon="18.001638992">
        <ele>39.2</ele>
        <time>2019-07-31T15:39:05Z</time>
      </trkpt>
      <trkpt lat="53.123897897751" lon="18.001609068617">
        <ele>38.4</ele>
        <time>2019-07-31T15:39:08Z</time>
      </trkpt>
      <trkpt lat="53.123910051506" lon="18.001459032607">
        <ele>37</ele>
        <time>2019-07-31T15:39:20Z</time>
      </trkpt>
      <trkpt lat="53.12391390718" lon="18.001431204699">
        <ele>36.6</ele>
        <time>2019-07-31T15:39:24Z</time>
      </trkpt>
      <trkpt lat="53.123919271596" lon="18.001384266059">
        <ele>35.8</ele>
        <time>2019-07-31T15:39:27Z</time>
      </trkpt>
      <trkpt lat="53.123931006256" lon="18.001279324671">
        <ele>35</ele>
        <time>2019-07-31T15:39:34Z</time>
      </trkpt>
      <trkpt lat="53.123947518599" lon="18.001230039099">
        <ele>34.2</ele>
        <time>2019-07-31T15:39:38Z</time>
      </trkpt>
      <trkpt lat="53.123976268516" lon="18.001151249239">
        <ele>34.2</ele>
        <time>2019-07-31T15:39:45Z</time>
      </trkpt>
      <trkpt lat="53.124011053401" lon="18.000990652035">
        <ele>33.4</ele>
        <time>2019-07-31T15:40:09Z</time>
      </trkpt>
      <trkpt lat="53.124023542432" lon="18.000929799441">
        <ele>33.4</ele>
        <time>2019-07-31T15:40:14Z</time>
      </trkpt>
      <trkpt lat="53.12413602753" lon="18.000350191056">
        <ele>33.8</ele>
        <time>2019-07-31T15:41:30Z</time>
      </trkpt>
      <trkpt lat="53.124162179058" lon="18.000292691222">
        <ele>33.6</ele>
        <time>2019-07-31T15:41:41Z</time>
      </trkpt>
      <trkpt lat="53.124178020849" lon="18.000152294397">
        <ele>34.2</ele>
        <time>2019-07-31T15:41:51Z</time>
      </trkpt>
      <trkpt lat="53.124184726369" lon="18.000122454833">
        <ele>35</ele>
        <time>2019-07-31T15:41:53Z</time>
      </trkpt>
      <trkpt lat="53.124179445772" lon="18.00006570937">
        <ele>36.4</ele>
        <time>2019-07-31T15:41:59Z</time>
      </trkpt>
      <trkpt lat="53.124260834021" lon="17.99962063048">
        <ele>29.4</ele>
        <time>2019-07-31T15:43:14Z</time>
      </trkpt>
      <trkpt lat="53.124270892301" lon="17.999687601861">
        <ele>29.8</ele>
        <time>2019-07-31T15:43:23Z</time>
      </trkpt>
      <trkpt lat="53.124215236485" lon="17.999789358127">
        <ele>27.8</ele>
        <time>2019-07-31T15:44:06Z</time>
      </trkpt>
      <trkpt lat="53.124136781901" lon="17.999743676772">
        <ele>27.2</ele>
        <time>2019-07-31T15:44:18Z</time>
      </trkpt>
      <trkpt lat="53.124058997869" lon="17.999732361207">
        <ele>27.2</ele>
        <time>2019-07-31T15:44:32Z</time>
      </trkpt>
      <trkpt lat="53.123986494434" lon="17.99972037509">
        <ele>26.4</ele>
        <time>2019-07-31T15:44:41Z</time>
      </trkpt>
      <trkpt lat="53.123932682636" lon="17.999728254076">
        <ele>26</ele>
        <time>2019-07-31T15:44:48Z</time>
      </trkpt>
      <trkpt lat="53.12390217252" lon="17.999721800013">
        <ele>25.4</ele>
        <time>2019-07-31T15:44:52Z</time>
      </trkpt>
      <trkpt lat="53.123820448995" lon="17.999747280989">
        <ele>23.2</ele>
        <time>2019-07-31T15:45:39Z</time>
      </trkpt>
      <trkpt lat="53.123836709881" lon="17.999957415222">
        <ele>24</ele>
        <time>2019-07-31T15:46:03Z</time>
      </trkpt>
      <trkpt lat="53.123801254444" lon="18.000264779495">
        <ele>28.2</ele>
        <time>2019-07-31T15:46:33Z</time>
      </trkpt>
      <trkpt lat="53.12378901687" lon="18.000311634316">
        <ele>27.2</ele>
        <time>2019-07-31T15:46:37Z</time>
      </trkpt>
      <trkpt lat="53.123776108744" lon="18.000374079471">
        <ele>27</ele>
        <time>2019-07-31T15:46:42Z</time>
      </trkpt>
      <trkpt lat="53.12373788728" lon="18.000553284493">
        <ele>27.2</ele>
        <time>2019-07-31T15:46:59Z</time>
      </trkpt>
      <trkpt lat="53.123725733525" lon="18.000600139314">
        <ele>27</ele>
        <time>2019-07-31T15:47:03Z</time>
      </trkpt>
      <trkpt lat="53.123718357453" lon="18.000632828724">
        <ele>26.8</ele>
        <time>2019-07-31T15:47:06Z</time>
      </trkpt>
      <trkpt lat="53.123712490123" lon="18.000679180631">
        <ele>26.8</ele>
        <time>2019-07-31T15:47:10Z</time>
      </trkpt>
      <trkpt lat="53.123668066053" lon="18.000879843317">
        <ele>27</ele>
        <time>2019-07-31T15:47:31Z</time>
      </trkpt>
      <trkpt lat="53.123665300026" lon="18.000942120834">
        <ele>27.8</ele>
        <time>2019-07-31T15:47:37Z</time>
      </trkpt>
      <trkpt lat="53.123663791284" lon="18.000994004795">
        <ele>28</ele>
        <time>2019-07-31T15:47:41Z</time>
      </trkpt>
      <trkpt lat="53.123645099647" lon="18.001085618962">
        <ele>27.2</ele>
        <time>2019-07-31T15:47:49Z</time>
      </trkpt>
      <trkpt lat="53.123618780481" lon="18.001128953385">
        <ele>21.4</ele>
        <time>2019-07-31T15:48:41Z</time>
      </trkpt>
      <trkpt lat="53.123631856245" lon="18.001118895105">
        <ele>21.4</ele>
        <time>2019-07-31T15:48:58Z</time>
      </trkpt>
      <trkpt lat="53.12359623317" lon="18.001179915337">
        <ele>21.8</ele>
        <time>2019-07-31T15:50:08Z</time>
      </trkpt>
      <trkpt lat="53.123597658093" lon="18.001182765183">
        <ele>22.2</ele>
        <time>2019-07-31T15:50:48Z</time>
      </trkpt>
      <trkpt lat="53.123543511019" lon="18.001370938838">
        <ele>24</ele>
        <time>2019-07-31T15:51:11Z</time>
      </trkpt>
      <trkpt lat="53.123501769157" lon="18.001787435449">
        <ele>20.4</ele>
        <time>2019-07-31T15:51:39Z</time>
      </trkpt>
      <trkpt lat="53.12360796783" lon="18.001647792995">
        <ele>30.4</ele>
        <time>2019-07-31T15:52:36Z</time>
      </trkpt>
      <trkpt lat="53.123375286286" lon="18.001449477241">
        <ele>29.2</ele>
        <time>2019-07-31T15:53:25Z</time>
      </trkpt>
      <trkpt lat="53.123170767926" lon="18.001335148125">
        <ele>32.4</ele>
        <time>2019-07-31T15:53:54Z</time>
      </trkpt>
      <trkpt lat="53.123131289177" lon="18.001312014081">
        <ele>32.2</ele>
        <time>2019-07-31T15:53:59Z</time>
      </trkpt>
      <trkpt lat="53.123015199862" lon="18.00126432107">
        <ele>31.8</ele>
        <time>2019-07-31T15:54:16Z</time>
      </trkpt>
      <trkpt lat="53.122942193513" lon="18.001240516474">
        <ele>31.8</ele>
        <time>2019-07-31T15:54:25Z</time>
      </trkpt>
      <trkpt lat="53.122906318981" lon="18.001256358265">
        <ele>32.6</ele>
        <time>2019-07-31T15:54:30Z</time>
      </trkpt>
      <trkpt lat="53.122858123056" lon="18.001215957507">
        <ele>33</ele>
        <time>2019-07-31T15:54:37Z</time>
      </trkpt>
      <trkpt lat="53.122775980436" lon="18.001116212897">
        <ele>36.6</ele>
        <time>2019-07-31T15:54:52Z</time>
      </trkpt>
      <trkpt lat="53.122543717987" lon="18.000969613466">
        <ele>53</ele>
        <time>2019-07-31T15:55:26Z</time>
      </trkpt>
      <trkpt lat="53.122451517087" lon="18.000887219389">
        <ele>57.6</ele>
        <time>2019-07-31T15:55:39Z</time>
      </trkpt>
      <trkpt lat="53.122028231137" lon="18.000645904488">
        <ele>48</ele>
        <time>2019-07-31T15:56:41Z</time>
      </trkpt>
      <trkpt lat="53.122003085437" lon="18.000632912543">
        <ele>48.2</ele>
        <time>2019-07-31T15:56:46Z</time>
      </trkpt>
      <trkpt lat="53.121946926707" lon="18.000572311406">
        <ele>48.2</ele>
        <time>2019-07-31T15:56:56Z</time>
      </trkpt>
      <trkpt lat="53.121910046347" lon="18.000540041091">
        <ele>47</ele>
        <time>2019-07-31T15:57:03Z</time>
      </trkpt>
      <trkpt lat="53.121807284253" lon="18.000507854595">
        <ele>43</ele>
        <time>2019-07-31T15:57:21Z</time>
      </trkpt>
      <trkpt lat="53.121790855729" lon="18.000521852368">
        <ele>41.8</ele>
        <time>2019-07-31T15:57:23Z</time>
      </trkpt>
      <trkpt lat="53.121771828816" lon="18.000547165706">
        <ele>41.4</ele>
        <time>2019-07-31T15:57:27Z</time>
      </trkpt>
      <trkpt lat="53.121722543244" lon="18.000625201195">
        <ele>38.4</ele>
        <time>2019-07-31T15:57:41Z</time>
      </trkpt>
      <trkpt lat="53.121663953763" lon="18.000711031851">
        <ele>36.2</ele>
        <time>2019-07-31T15:57:55Z</time>
      </trkpt>
      <trkpt lat="53.121571585225" lon="18.00079158191">
        <ele>33.8</ele>
        <time>2019-07-31T15:58:18Z</time>
      </trkpt>
      <trkpt lat="53.121468236398" lon="18.000897361488">
        <ele>34.4</ele>
        <time>2019-07-31T16:07:32Z</time>
      </trkpt>
      <trkpt lat="53.121367318322" lon="18.000850171391">
        <ele>39.6</ele>
        <time>2019-07-31T16:07:46Z</time>
      </trkpt>
      <trkpt lat="53.121238572338" lon="18.000791414272">
        <ele>41.4</ele>
        <time>2019-07-31T16:08:01Z</time>
      </trkpt>
      <trkpt lat="53.120922323251" lon="18.00048731894">
        <ele>45.6</ele>
        <time>2019-07-31T16:08:49Z</time>
      </trkpt>
      <trkpt lat="53.120993401763" lon="18.000020195653">
        <ele>47</ele>
        <time>2019-07-31T16:09:33Z</time>
      </trkpt>
      <trkpt lat="53.121061462791" lon="17.99959464659">
        <ele>46.2</ele>
        <time>2019-07-31T16:10:08Z</time>
      </trkpt>
      <trkpt lat="53.121106138318" lon="17.999306812144">
        <ele>46.4</ele>
        <time>2019-07-31T16:10:31Z</time>
      </trkpt>
      <trkpt lat="53.121119800815" lon="17.999221987316">
        <ele>46.4</ele>
        <time>2019-07-31T16:10:41Z</time>
      </trkpt>
      <trkpt lat="53.121123991765" lon="17.999155854125">
        <ele>46.6</ele>
        <time>2019-07-31T16:10:57Z</time>
      </trkpt>
      <trkpt lat="53.12112189629" lon="17.999207738086">
        <ele>46.6</ele>
        <time>2019-07-31T16:11:25Z</time>
      </trkpt>
      <trkpt lat="53.121135139692" lon="17.999235733632">
        <ele>46.6</ele>
        <time>2019-07-31T16:11:42Z</time>
      </trkpt>
      <trkpt lat="53.121136061701" lon="17.999240762772">
        <ele>46.4</ele>
        <time>2019-07-31T16:12:02Z</time>
      </trkpt>
      <trkpt lat="53.121203535996" lon="17.999035992955">
        <ele>46.4</ele>
        <time>2019-07-31T16:12:18Z</time>
      </trkpt>
      <trkpt lat="53.121349716332" lon="17.998343145101">
        <ele>51</ele>
        <time>2019-07-31T16:13:18Z</time>
      </trkpt>
      <trkpt lat="53.121470834787" lon="17.997782731267">
        <ele>46</ele>
        <time>2019-07-31T16:14:24Z</time>
      </trkpt>
      <trkpt lat="53.121491202804" lon="17.997059708573">
        <ele>55.6</ele>
        <time>2019-07-31T16:15:27Z</time>
      </trkpt>
      <trkpt lat="53.121480809248" lon="17.996716134492">
        <ele>46</ele>
        <time>2019-07-31T16:15:59Z</time>
      </trkpt>
      <trkpt lat="53.121287941729" lon="17.996312629826">
        <ele>37.2</ele>
        <time>2019-07-31T16:16:38Z</time>
      </trkpt>
      <trkpt lat="53.121161375039" lon="17.995961176759">
        <ele>43</ele>
        <time>2019-07-31T16:17:16Z</time>
      </trkpt>
      <trkpt lat="53.121124494679" lon="17.995888757143">
        <ele>48.6</ele>
        <time>2019-07-31T16:17:22Z</time>
      </trkpt>
      <trkpt lat="53.121093649287" lon="17.995575944635">
        <ele>51.8</ele>
        <time>2019-07-31T16:17:45Z</time>
      </trkpt>
      <trkpt lat="53.121108066155" lon="17.995292384958">
        <ele>49.6</ele>
        <time>2019-07-31T16:18:06Z</time>
      </trkpt>
      <trkpt lat="53.121164811618" lon="17.994924168091">
        <ele>52.6</ele>
        <time>2019-07-31T16:18:30Z</time>
      </trkpt>
      <trkpt lat="53.121172606785" lon="17.994887790645">
        <ele>53.2</ele>
        <time>2019-07-31T16:18:33Z</time>
      </trkpt>
      <trkpt lat="53.121238320881" lon="17.994762816516">
        <ele>52.4</ele>
        <time>2019-07-31T16:18:53Z</time>
      </trkpt>
      <trkpt lat="53.121240835451" lon="17.994768935303">
        <ele>52.4</ele>
        <time>2019-07-31T16:19:01Z</time>
      </trkpt>
      <trkpt lat="53.121297078" lon="17.99448755492">
        <ele>47</ele>
        <time>2019-07-31T16:19:26Z</time>
      </trkpt>
      <trkpt lat="53.121311913963" lon="17.994301812016">
        <ele>50.8</ele>
        <time>2019-07-31T16:19:41Z</time>
      </trkpt>
      <trkpt lat="53.121318116569" lon="17.994270547529">
        <ele>49.8</ele>
        <time>2019-07-31T16:19:44Z</time>
      </trkpt>
      <trkpt lat="53.12133228198" lon="17.994173820403">
        <ele>48.2</ele>
        <time>2019-07-31T16:19:52Z</time>
      </trkpt>
      <trkpt lat="53.121384836493" lon="17.994019509624">
        <ele>50.6</ele>
        <time>2019-07-31T16:20:06Z</time>
      </trkpt>
      <trkpt lat="53.121421800672" lon="17.993975672287">
        <ele>53</ele>
        <time>2019-07-31T16:20:11Z</time>
      </trkpt>
      <trkpt lat="53.121554569968" lon="17.993386843812">
        <ele>66.8</ele>
        <time>2019-07-31T16:21:03Z</time>
      </trkpt>
      <trkpt lat="53.121671832749" lon="17.993057686599">
        <ele>49.2</ele>
        <time>2019-07-31T16:21:28Z</time>
      </trkpt>
      <trkpt lat="53.121834441609" lon="17.992760799701">
        <ele>48.4</ele>
        <time>2019-07-31T16:22:02Z</time>
      </trkpt>
      <trkpt lat="53.121928570346" lon="17.992813605671">
        <ele>52</ele>
        <time>2019-07-31T16:22:14Z</time>
      </trkpt>
      <trkpt lat="53.121969893113" lon="17.992847468547">
        <ele>50.2</ele>
        <time>2019-07-31T16:22:20Z</time>
      </trkpt>
      <trkpt lat="53.122107943006" lon="17.992917122136">
        <ele>48.4</ele>
        <time>2019-07-31T16:22:36Z</time>
      </trkpt>
      <trkpt lat="53.122130909412" lon="17.992937573972">
        <ele>47.8</ele>
        <time>2019-07-31T16:22:39Z</time>
      </trkpt>
      <trkpt lat="53.122219841371" lon="17.992981495128">
        <ele>48.8</ele>
        <time>2019-07-31T16:23:11Z</time>
      </trkpt>
      <trkpt lat="53.122299804697" lon="17.992976214531">
        <ele>49</ele>
        <time>2019-07-31T16:23:21Z</time>
      </trkpt>
      <trkpt lat="53.122331320641" lon="17.993013346348">
        <ele>48.6</ele>
        <time>2019-07-31T16:23:33Z</time>
      </trkpt>
    </trkseg>
  </trk>
</gpx>